sensor_id;sensor_type;location;lat;lon;timestamp;temperature;humidity
30158;DHT22;21203;-33.912;151.178;2023-04-09T00:00:21;27.40;44.80
30158;DHT22;21203;-33.912;151.178;2023-04-09T00:02:52;27.50;44.30
30158;DHT22;21203;-33.912;151.178;2023-04-09T00:05:22;27.50;44.40
30158;DHT22;21203;-33.912;151.178;2023-04-09T00:07:53;27.60;44.10
30158;DHT22;21203;-33.912;151.178;2023-04-09T00:10:23;27.70;44.00
30158;DHT22;21203;-33.912;151.178;2023-04-09T00:12:54;27.70;44.00
30158;DHT22;21203;-33.912;151.178;2023-04-09T00:15:25;27.80;44.10
30158;DHT22;21203;-33.912;151.178;2023-04-09T00:17:55;27.80;44.00
30158;DHT22;21203;-33.912;151.178;2023-04-09T00:20:25;27.80;44.10
30158;DHT22;21203;-33.912;151.178;2023-04-09T00:22:55;27.90;43.80
30158;DHT22;21203;-33.912;151.178;2023-04-09T00:25:26;27.90;44.00
30158;DHT22;21203;-33.912;151.178;2023-04-09T00:27:56;27.90;43.90
30158;DHT22;21203;-33.912;151.178;2023-04-09T00:30:27;27.90;44.20
30158;DHT22;21203;-33.912;151.178;2023-04-09T00:32:58;27.90;44.20
30158;DHT22;21203;-33.912;151.178;2023-04-09T00:35:28;27.90;43.90
30158;DHT22;21203;-33.912;151.178;2023-04-09T00:37:58;27.90;44.30
30158;DHT22;21203;-33.912;151.178;2023-04-09T00:40:29;28.00;44.30
30158;DHT22;21203;-33.912;151.178;2023-04-09T00:43:00;28.00;44.10
30158;DHT22;21203;-33.912;151.178;2023-04-09T00:45:30;27.90;44.10
30158;DHT22;21203;-33.912;151.178;2023-04-09T00:48:01;27.90;44.10
30158;DHT22;21203;-33.912;151.178;2023-04-09T00:50:32;27.90;44.30
30158;DHT22;21203;-33.912;151.178;2023-04-09T00:53:02;27.80;44.50
30158;DHT22;21203;-33.912;151.178;2023-04-09T00:55:34;27.80;44.60
30158;DHT22;21203;-33.912;151.178;2023-04-09T00:58:05;27.70;44.60
30158;DHT22;21203;-33.912;151.178;2023-04-09T01:00:37;27.70;44.70
30158;DHT22;21203;-33.912;151.178;2023-04-09T01:03:08;27.70;44.70
30158;DHT22;21203;-33.912;151.178;2023-04-09T01:08:40;27.60;45.10
30158;DHT22;21203;-33.912;151.178;2023-04-09T01:11:19;27.70;45.00
30158;DHT22;21203;-33.912;151.178;2023-04-09T01:16:46;27.60;44.90
30158;DHT22;21203;-33.912;151.178;2023-04-09T01:22:13;27.60;45.00
30158;DHT22;21203;-33.912;151.178;2023-04-09T01:27:15;27.50;45.20
30158;DHT22;21203;-33.912;151.178;2023-04-09T01:29:47;27.40;45.60
30158;DHT22;21203;-33.912;151.178;2023-04-09T01:32:18;27.30;45.60
30158;DHT22;21203;-33.912;151.178;2023-04-09T01:34:50;27.30;45.90
30158;DHT22;21203;-33.912;151.178;2023-04-09T01:37:22;27.30;45.90
30158;DHT22;21203;-33.912;151.178;2023-04-09T01:39:54;27.20;46.30
30158;DHT22;21203;-33.912;151.178;2023-04-09T01:42:24;27.10;46.20
30158;DHT22;21203;-33.912;151.178;2023-04-09T01:44:55;27.10;46.60
30158;DHT22;21203;-33.912;151.178;2023-04-09T01:47:26;27.10;46.60
30158;DHT22;21203;-33.912;151.178;2023-04-09T01:49:57;27.00;46.70
30158;DHT22;21203;-33.912;151.178;2023-04-09T01:52:28;27.10;46.80
30158;DHT22;21203;-33.912;151.178;2023-04-09T01:54:58;27.10;46.70
30158;DHT22;21203;-33.912;151.178;2023-04-09T01:57:29;27.00;46.90
30158;DHT22;21203;-33.912;151.178;2023-04-09T02:00:00;27.00;46.70
30158;DHT22;21203;-33.912;151.178;2023-04-09T02:05:12;27.10;47.10
30158;DHT22;21203;-33.912;151.178;2023-04-09T02:07:46;27.20;45.90
30158;DHT22;21203;-33.912;151.178;2023-04-09T02:10:34;27.30;46.50
30158;DHT22;21203;-33.912;151.178;2023-04-09T02:13:07;27.20;46.80
30158;DHT22;21203;-33.912;151.178;2023-04-09T02:15:39;27.30;46.90
30158;DHT22;21203;-33.912;151.178;2023-04-09T02:18:26;27.40;46.90
30158;DHT22;21203;-33.912;151.178;2023-04-09T02:20:58;27.50;45.80
30158;DHT22;21203;-33.912;151.178;2023-04-09T02:23:29;27.60;45.10
30158;DHT22;21203;-33.912;151.178;2023-04-09T02:26:00;27.70;45.40
30158;DHT22;21203;-33.912;151.178;2023-04-09T02:28:31;27.70;45.90
30158;DHT22;21203;-33.912;151.178;2023-04-09T02:31:01;27.60;46.20
30158;DHT22;21203;-33.912;151.178;2023-04-09T02:33:32;27.80;45.50
30158;DHT22;21203;-33.912;151.178;2023-04-09T02:36:02;27.70;45.60
30158;DHT22;21203;-33.912;151.178;2023-04-09T02:38:33;27.70;45.90
30158;DHT22;21203;-33.912;151.178;2023-04-09T02:41:03;27.70;46.10
30158;DHT22;21203;-33.912;151.178;2023-04-09T02:43:33;27.80;45.90
30158;DHT22;21203;-33.912;151.178;2023-04-09T02:48:55;27.80;45.60
30158;DHT22;21203;-33.912;151.178;2023-04-09T02:51:25;27.80;45.70
30158;DHT22;21203;-33.912;151.178;2023-04-09T02:53:55;27.90;45.70
30158;DHT22;21203;-33.912;151.178;2023-04-09T02:56:26;27.90;45.60
30158;DHT22;21203;-33.912;151.178;2023-04-09T02:58:56;27.90;45.40
30158;DHT22;21203;-33.912;151.178;2023-04-09T03:01:27;28.00;45.50
30158;DHT22;21203;-33.912;151.178;2023-04-09T03:03:57;28.30;45.40
30158;DHT22;21203;-33.912;151.178;2023-04-09T03:06:27;28.40;44.80
30158;DHT22;21203;-33.912;151.178;2023-04-09T03:08:58;28.50;44.60
30158;DHT22;21203;-33.912;151.178;2023-04-09T03:11:28;28.70;44.20
30158;DHT22;21203;-33.912;151.178;2023-04-09T03:13:59;28.60;44.20
30158;DHT22;21203;-33.912;151.178;2023-04-09T03:16:29;28.40;44.50
30158;DHT22;21203;-33.912;151.178;2023-04-09T03:18:59;28.10;45.30
30158;DHT22;21203;-33.912;151.178;2023-04-09T03:21:30;27.80;45.80
30158;DHT22;21203;-33.912;151.178;2023-04-09T03:24:01;27.50;46.10
30158;DHT22;21203;-33.912;151.178;2023-04-09T03:26:31;27.30;46.60
30158;DHT22;21203;-33.912;151.178;2023-04-09T03:29:04;27.00;47.30
30158;DHT22;21203;-33.912;151.178;2023-04-09T03:31:34;26.80;47.70
30158;DHT22;21203;-33.912;151.178;2023-04-09T03:34:05;26.50;48.30
30158;DHT22;21203;-33.912;151.178;2023-04-09T03:36:36;26.20;49.00
30158;DHT22;21203;-33.912;151.178;2023-04-09T03:39:06;25.90;49.00
30158;DHT22;21203;-33.912;151.178;2023-04-09T03:41:36;25.80;49.60
30158;DHT22;21203;-33.912;151.178;2023-04-09T03:44:07;25.70;49.80
30158;DHT22;21203;-33.912;151.178;2023-04-09T03:46:37;25.60;49.80
30158;DHT22;21203;-33.912;151.178;2023-04-09T03:49:08;25.60;50.30
30158;DHT22;21203;-33.912;151.178;2023-04-09T03:51:38;25.50;50.10
30158;DHT22;21203;-33.912;151.178;2023-04-09T03:54:08;25.50;50.80
30158;DHT22;21203;-33.912;151.178;2023-04-09T03:56:40;25.50;50.30
30158;DHT22;21203;-33.912;151.178;2023-04-09T03:59:10;25.40;50.10
30158;DHT22;21203;-33.912;151.178;2023-04-09T04:01:40;25.40;50.40
30158;DHT22;21203;-33.912;151.178;2023-04-09T04:04:11;25.40;49.90
30158;DHT22;21203;-33.912;151.178;2023-04-09T04:06:42;25.50;50.10
30158;DHT22;21203;-33.912;151.178;2023-04-09T04:09:12;25.60;49.90
30158;DHT22;21203;-33.912;151.178;2023-04-09T04:11:43;25.50;49.60
30158;DHT22;21203;-33.912;151.178;2023-04-09T04:14:13;25.40;50.10
30158;DHT22;21203;-33.912;151.178;2023-04-09T04:16:44;25.40;50.60
30158;DHT22;21203;-33.912;151.178;2023-04-09T04:19:14;25.40;50.20
30158;DHT22;21203;-33.912;151.178;2023-04-09T04:21:44;25.40;50.40
30158;DHT22;21203;-33.912;151.178;2023-04-09T04:24:15;25.40;50.50
30158;DHT22;21203;-33.912;151.178;2023-04-09T04:26:45;25.40;50.30
30158;DHT22;21203;-33.912;151.178;2023-04-09T04:29:16;25.40;50.60
30158;DHT22;21203;-33.912;151.178;2023-04-09T04:31:46;25.40;50.60
30158;DHT22;21203;-33.912;151.178;2023-04-09T04:34:17;25.40;50.50
30158;DHT22;21203;-33.912;151.178;2023-04-09T04:36:48;25.40;50.60
30158;DHT22;21203;-33.912;151.178;2023-04-09T04:39:18;25.40;50.60
30158;DHT22;21203;-33.912;151.178;2023-04-09T04:41:48;25.40;50.80
30158;DHT22;21203;-33.912;151.178;2023-04-09T04:44:19;25.30;50.60
30158;DHT22;21203;-33.912;151.178;2023-04-09T04:46:50;25.30;50.80
30158;DHT22;21203;-33.912;151.178;2023-04-09T04:49:20;25.30;50.50
30158;DHT22;21203;-33.912;151.178;2023-04-09T04:51:51;25.30;49.70
30158;DHT22;21203;-33.912;151.178;2023-04-09T04:54:21;25.40;50.40
30158;DHT22;21203;-33.912;151.178;2023-04-09T04:56:50;25.40;48.90
30158;DHT22;21203;-33.912;151.178;2023-04-09T04:59:21;25.40;49.90
30158;DHT22;21203;-33.912;151.178;2023-04-09T05:01:51;25.40;50.20
30158;DHT22;21203;-33.912;151.178;2023-04-09T05:04:21;25.40;50.20
30158;DHT22;21203;-33.912;151.178;2023-04-09T05:06:51;25.40;50.20
30158;DHT22;21203;-33.912;151.178;2023-04-09T05:09:22;25.40;50.00
30158;DHT22;21203;-33.912;151.178;2023-04-09T05:11:52;25.40;50.80
30158;DHT22;21203;-33.912;151.178;2023-04-09T05:14:23;25.40;49.60
30158;DHT22;21203;-33.912;151.178;2023-04-09T05:16:53;25.50;49.70
30158;DHT22;21203;-33.912;151.178;2023-04-09T05:19:24;25.40;49.80
30158;DHT22;21203;-33.912;151.178;2023-04-09T05:21:54;25.30;50.20
30158;DHT22;21203;-33.912;151.178;2023-04-09T05:24:25;25.20;50.30
30158;DHT22;21203;-33.912;151.178;2023-04-09T05:26:55;25.20;50.50
30158;DHT22;21203;-33.912;151.178;2023-04-09T05:29:26;25.20;49.90
30158;DHT22;21203;-33.912;151.178;2023-04-09T05:31:56;25.30;50.10
30158;DHT22;21203;-33.912;151.178;2023-04-09T05:34:26;25.30;50.40
30158;DHT22;21203;-33.912;151.178;2023-04-09T05:36:57;25.30;49.90
30158;DHT22;21203;-33.912;151.178;2023-04-09T05:39:27;25.30;50.00
30158;DHT22;21203;-33.912;151.178;2023-04-09T05:41:58;25.30;50.40
30158;DHT22;21203;-33.912;151.178;2023-04-09T05:44:29;25.20;50.00
30158;DHT22;21203;-33.912;151.178;2023-04-09T05:46:59;25.20;50.10
30158;DHT22;21203;-33.912;151.178;2023-04-09T05:49:30;25.20;49.60
30158;DHT22;21203;-33.912;151.178;2023-04-09T05:52:00;25.20;50.00
30158;DHT22;21203;-33.912;151.178;2023-04-09T05:54:31;25.20;49.90
30158;DHT22;21203;-33.912;151.178;2023-04-09T05:57:01;25.30;49.80
30158;DHT22;21203;-33.912;151.178;2023-04-09T05:59:32;25.20;49.90
30158;DHT22;21203;-33.912;151.178;2023-04-09T06:02:03;25.20;50.10
30158;DHT22;21203;-33.912;151.178;2023-04-09T06:04:33;25.20;50.00
30158;DHT22;21203;-33.912;151.178;2023-04-09T06:07:03;25.20;49.70
30158;DHT22;21203;-33.912;151.178;2023-04-09T06:09:34;25.10;49.40
30158;DHT22;21203;-33.912;151.178;2023-04-09T06:12:04;25.00;49.50
30158;DHT22;21203;-33.912;151.178;2023-04-09T06:14:35;25.10;47.50
30158;DHT22;21203;-33.912;151.178;2023-04-09T06:17:05;25.20;49.00
30158;DHT22;21203;-33.912;151.178;2023-04-09T06:19:36;25.10;49.00
30158;DHT22;21203;-33.912;151.178;2023-04-09T06:22:08;25.10;49.00
30158;DHT22;21203;-33.912;151.178;2023-04-09T06:24:37;25.10;49.00
30158;DHT22;21203;-33.912;151.178;2023-04-09T06:27:08;25.00;49.00
30158;DHT22;21203;-33.912;151.178;2023-04-09T06:29:38;25.00;48.70
30158;DHT22;21203;-33.912;151.178;2023-04-09T06:32:09;25.10;48.20
30158;DHT22;21203;-33.912;151.178;2023-04-09T06:34:39;25.00;48.40
30158;DHT22;21203;-33.912;151.178;2023-04-09T06:37:10;25.00;48.30
30158;DHT22;21203;-33.912;151.178;2023-04-09T06:39:40;24.90;48.10
30158;DHT22;21203;-33.912;151.178;2023-04-09T06:42:11;24.80;48.30
30158;DHT22;21203;-33.912;151.178;2023-04-09T06:44:41;24.90;48.60
30158;DHT22;21203;-33.912;151.178;2023-04-09T06:47:12;24.90;47.70
30158;DHT22;21203;-33.912;151.178;2023-04-09T06:49:42;25.00;47.50
30158;DHT22;21203;-33.912;151.178;2023-04-09T06:52:13;25.00;45.90
30158;DHT22;21203;-33.912;151.178;2023-04-09T06:54:44;25.00;47.50
30158;DHT22;21203;-33.912;151.178;2023-04-09T06:57:15;25.00;48.00
30158;DHT22;21203;-33.912;151.178;2023-04-09T06:59:45;25.00;46.00
30158;DHT22;21203;-33.912;151.178;2023-04-09T07:02:15;25.00;47.40
30158;DHT22;21203;-33.912;151.178;2023-04-09T07:04:46;24.90;47.80
30158;DHT22;21203;-33.912;151.178;2023-04-09T07:07:16;24.90;45.70
30158;DHT22;21203;-33.912;151.178;2023-04-09T07:09:48;24.90;44.90
30158;DHT22;21203;-33.912;151.178;2023-04-09T07:12:33;24.90;45.30
30158;DHT22;21203;-33.912;151.178;2023-04-09T07:15:04;24.90;45.80
30158;DHT22;21203;-33.912;151.178;2023-04-09T07:17:36;24.90;47.10
30158;DHT22;21203;-33.912;151.178;2023-04-09T07:20:07;24.90;47.20
30158;DHT22;21203;-33.912;151.178;2023-04-09T07:22:38;24.80;47.70
30158;DHT22;21203;-33.912;151.178;2023-04-09T07:25:09;24.70;48.20
30158;DHT22;21203;-33.912;151.178;2023-04-09T07:27:40;24.70;47.60
30158;DHT22;21203;-33.912;151.178;2023-04-09T07:30:11;24.60;48.30
30158;DHT22;21203;-33.912;151.178;2023-04-09T07:32:41;24.60;48.50
30158;DHT22;21203;-33.912;151.178;2023-04-09T07:35:11;24.60;48.50
30158;DHT22;21203;-33.912;151.178;2023-04-09T07:37:42;24.60;46.40
30158;DHT22;21203;-33.912;151.178;2023-04-09T07:40:12;24.60;45.60
30158;DHT22;21203;-33.912;151.178;2023-04-09T07:42:43;24.50;47.20
30158;DHT22;21203;-33.912;151.178;2023-04-09T07:45:14;24.50;48.00
30158;DHT22;21203;-33.912;151.178;2023-04-09T07:47:45;24.60;45.60
30158;DHT22;21203;-33.912;151.178;2023-04-09T07:50:15;24.60;45.20
30158;DHT22;21203;-33.912;151.178;2023-04-09T07:52:46;24.60;45.10
30158;DHT22;21203;-33.912;151.178;2023-04-09T07:55:17;24.60;47.90
30158;DHT22;21203;-33.912;151.178;2023-04-09T07:57:47;24.50;48.20
30158;DHT22;21203;-33.912;151.178;2023-04-09T08:00:18;24.40;48.40
30158;DHT22;21203;-33.912;151.178;2023-04-09T08:02:48;24.40;48.80
30158;DHT22;21203;-33.912;151.178;2023-04-09T08:05:19;24.40;49.50
30158;DHT22;21203;-33.912;151.178;2023-04-09T08:07:50;24.40;48.30
30158;DHT22;21203;-33.912;151.178;2023-04-09T08:10:21;24.40;45.40
30158;DHT22;21203;-33.912;151.178;2023-04-09T08:12:51;24.40;45.60
30158;DHT22;21203;-33.912;151.178;2023-04-09T08:15:21;24.50;45.50
30158;DHT22;21203;-33.912;151.178;2023-04-09T08:17:52;24.50;47.00
30158;DHT22;21203;-33.912;151.178;2023-04-09T08:20:22;24.40;46.60
30158;DHT22;21203;-33.912;151.178;2023-04-09T08:22:53;24.40;46.10
30158;DHT22;21203;-33.912;151.178;2023-04-09T08:25:23;24.40;48.50
30158;DHT22;21203;-33.912;151.178;2023-04-09T08:27:53;24.30;48.90
30158;DHT22;21203;-33.912;151.178;2023-04-09T08:30:24;24.30;47.70
30158;DHT22;21203;-33.912;151.178;2023-04-09T08:32:54;24.20;48.70
30158;DHT22;21203;-33.912;151.178;2023-04-09T08:35:25;24.30;46.90
30158;DHT22;21203;-33.912;151.178;2023-04-09T08:37:56;24.20;46.80
30158;DHT22;21203;-33.912;151.178;2023-04-09T08:40:26;24.20;46.10
30158;DHT22;21203;-33.912;151.178;2023-04-09T08:42:57;24.20;46.30
30158;DHT22;21203;-33.912;151.178;2023-04-09T08:45:27;24.30;45.50
30158;DHT22;21203;-33.912;151.178;2023-04-09T08:47:58;24.30;48.50
30158;DHT22;21203;-33.912;151.178;2023-04-09T08:50:30;24.20;48.10
30158;DHT22;21203;-33.912;151.178;2023-04-09T08:53:02;24.20;46.70
30158;DHT22;21203;-33.912;151.178;2023-04-09T08:55:34;24.20;48.00
30158;DHT22;21203;-33.912;151.178;2023-04-09T08:58:08;24.10;48.90
30158;DHT22;21203;-33.912;151.178;2023-04-09T09:00:39;24.10;47.70
30158;DHT22;21203;-33.912;151.178;2023-04-09T09:03:10;24.10;46.30
30158;DHT22;21203;-33.912;151.178;2023-04-09T09:05:49;24.10;47.50
30158;DHT22;21203;-33.912;151.178;2023-04-09T09:14:06;24.00;48.60
30158;DHT22;21203;-33.912;151.178;2023-04-09T09:16:38;24.00;48.70
30158;DHT22;21203;-33.912;151.178;2023-04-09T09:19:09;24.00;49.40
30158;DHT22;21203;-33.912;151.178;2023-04-09T09:21:39;24.00;49.30
30158;DHT22;21203;-33.912;151.178;2023-04-09T09:24:15;24.00;48.60
30158;DHT22;21203;-33.912;151.178;2023-04-09T09:26:42;24.00;47.30
30158;DHT22;21203;-33.912;151.178;2023-04-09T09:29:13;24.00;48.30
30158;DHT22;21203;-33.912;151.178;2023-04-09T09:31:50;23.90;48.50
30158;DHT22;21203;-33.912;151.178;2023-04-09T09:34:22;24.00;46.80
30158;DHT22;21203;-33.912;151.178;2023-04-09T09:36:53;24.00;47.00
30158;DHT22;21203;-33.912;151.178;2023-04-09T09:39:24;24.00;47.10
30158;DHT22;21203;-33.912;151.178;2023-04-09T09:42:05;24.00;48.90
30158;DHT22;21203;-33.912;151.178;2023-04-09T09:44:33;23.90;46.70
30158;DHT22;21203;-33.912;151.178;2023-04-09T09:47:04;24.00;47.30
30158;DHT22;21203;-33.912;151.178;2023-04-09T09:49:34;23.90;47.50
30158;DHT22;21203;-33.912;151.178;2023-04-09T09:52:08;23.80;47.30
30158;DHT22;21203;-33.912;151.178;2023-04-09T09:54:44;23.90;46.60
30158;DHT22;21203;-33.912;151.178;2023-04-09T09:57:14;23.80;46.40
30158;DHT22;21203;-33.912;151.178;2023-04-09T09:59:49;23.80;45.70
30158;DHT22;21203;-33.912;151.178;2023-04-09T10:02:22;23.80;45.40
30158;DHT22;21203;-33.912;151.178;2023-04-09T10:04:54;23.80;45.50
30158;DHT22;21203;-33.912;151.178;2023-04-09T10:07:24;23.80;46.00
30158;DHT22;21203;-33.912;151.178;2023-04-09T10:09:56;23.70;46.60
30158;DHT22;21203;-33.912;151.178;2023-04-09T10:12:28;23.70;46.00
30158;DHT22;21203;-33.912;151.178;2023-04-09T10:15:00;23.70;46.00
30158;DHT22;21203;-33.912;151.178;2023-04-09T10:17:48;23.70;47.00
30158;DHT22;21203;-33.912;151.178;2023-04-09T10:22:55;23.60;47.30
30158;DHT22;21203;-33.912;151.178;2023-04-09T10:25:26;23.60;47.20
30158;DHT22;21203;-33.912;151.178;2023-04-09T10:28:05;23.60;46.80
30158;DHT22;21203;-33.912;151.178;2023-04-09T10:30:35;23.60;47.20
30158;DHT22;21203;-33.912;151.178;2023-04-09T10:33:16;23.50;47.30
30158;DHT22;21203;-33.912;151.178;2023-04-09T10:35:50;23.60;46.80
30158;DHT22;21203;-33.912;151.178;2023-04-09T10:38:35;23.50;47.10
30158;DHT22;21203;-33.912;151.178;2023-04-09T10:41:26;23.50;47.30
30158;DHT22;21203;-33.912;151.178;2023-04-09T10:43:55;23.50;47.60
30158;DHT22;21203;-33.912;151.178;2023-04-09T10:46:31;23.40;48.30
30158;DHT22;21203;-33.912;151.178;2023-04-09T10:49:23;23.40;50.00
30158;DHT22;21203;-33.912;151.178;2023-04-09T10:52:07;23.40;50.20
30158;DHT22;21203;-33.912;151.178;2023-04-09T10:54:42;23.30;49.90
30158;DHT22;21203;-33.912;151.178;2023-04-09T10:57:22;23.30;48.30
30158;DHT22;21203;-33.912;151.178;2023-04-09T10:59:50;23.30;48.20
30158;DHT22;21203;-33.912;151.178;2023-04-09T11:02:44;23.30;47.80
30158;DHT22;21203;-33.912;151.178;2023-04-09T11:05:31;23.30;48.00
30158;DHT22;21203;-33.912;151.178;2023-04-09T11:10:38;23.20;50.30
30158;DHT22;21203;-33.912;151.178;2023-04-09T11:13:13;23.20;49.70
30158;DHT22;21203;-33.912;151.178;2023-04-09T11:15:44;23.20;49.30
30158;DHT22;21203;-33.912;151.178;2023-04-09T11:18:24;23.20;48.60
30158;DHT22;21203;-33.912;151.178;2023-04-09T11:20:55;23.20;48.40
30158;DHT22;21203;-33.912;151.178;2023-04-09T11:23:27;23.20;48.40
30158;DHT22;21203;-33.912;151.178;2023-04-09T11:25:57;23.10;49.30
30158;DHT22;21203;-33.912;151.178;2023-04-09T11:28:29;23.10;48.70
30158;DHT22;21203;-33.912;151.178;2023-04-09T11:30:59;23.10;48.70
30158;DHT22;21203;-33.912;151.178;2023-04-09T11:33:33;23.10;49.90
30158;DHT22;21203;-33.912;151.178;2023-04-09T11:36:05;23.10;49.40
30158;DHT22;21203;-33.912;151.178;2023-04-09T11:38:36;23.10;48.40
30158;DHT22;21203;-33.912;151.178;2023-04-09T11:41:06;23.00;48.70
30158;DHT22;21203;-33.912;151.178;2023-04-09T11:43:38;23.10;48.00
30158;DHT22;21203;-33.912;151.178;2023-04-09T11:46:08;23.00;48.80
30158;DHT22;21203;-33.912;151.178;2023-04-09T11:48:38;23.00;48.10
30158;DHT22;21203;-33.912;151.178;2023-04-09T11:51:09;23.00;47.70
30158;DHT22;21203;-33.912;151.178;2023-04-09T11:53:40;23.00;48.40
30158;DHT22;21203;-33.912;151.178;2023-04-09T11:56:10;22.90;48.10
30158;DHT22;21203;-33.912;151.178;2023-04-09T11:58:47;22.90;48.00
30158;DHT22;21203;-33.912;151.178;2023-04-09T12:01:13;22.80;48.10
30158;DHT22;21203;-33.912;151.178;2023-04-09T12:03:43;22.80;48.50
30158;DHT22;21203;-33.912;151.178;2023-04-09T12:06:14;22.80;48.20
30158;DHT22;21203;-33.912;151.178;2023-04-09T12:08:44;22.70;48.30
30158;DHT22;21203;-33.912;151.178;2023-04-09T12:11:15;22.70;48.50
30158;DHT22;21203;-33.912;151.178;2023-04-09T12:13:46;22.70;48.40
30158;DHT22;21203;-33.912;151.178;2023-04-09T12:19:00;22.70;48.00
30158;DHT22;21203;-33.912;151.178;2023-04-09T12:24:17;22.60;48.40
30158;DHT22;21203;-33.912;151.178;2023-04-09T12:26:48;22.60;48.60
30158;DHT22;21203;-33.912;151.178;2023-04-09T12:29:20;22.60;48.80
30158;DHT22;21203;-33.912;151.178;2023-04-09T12:31:50;22.60;48.40
30158;DHT22;21203;-33.912;151.178;2023-04-09T12:34:21;22.50;49.00
30158;DHT22;21203;-33.912;151.178;2023-04-09T12:36:51;22.50;48.80
30158;DHT22;21203;-33.912;151.178;2023-04-09T12:39:22;22.40;49.10
30158;DHT22;21203;-33.912;151.178;2023-04-09T12:41:52;22.40;48.80
30158;DHT22;21203;-33.912;151.178;2023-04-09T12:44:23;22.40;48.40
30158;DHT22;21203;-33.912;151.178;2023-04-09T12:46:53;22.30;48.90
30158;DHT22;21203;-33.912;151.178;2023-04-09T12:49:23;22.30;48.90
30158;DHT22;21203;-33.912;151.178;2023-04-09T12:51:54;22.20;48.50
30158;DHT22;21203;-33.912;151.178;2023-04-09T12:54:24;22.20;48.80
30158;DHT22;21203;-33.912;151.178;2023-04-09T12:56:54;22.10;48.70
30158;DHT22;21203;-33.912;151.178;2023-04-09T12:59:24;22.10;49.00
30158;DHT22;21203;-33.912;151.178;2023-04-09T13:01:56;22.10;49.10
30158;DHT22;21203;-33.912;151.178;2023-04-09T13:04:26;22.10;49.30
30158;DHT22;21203;-33.912;151.178;2023-04-09T13:06:56;22.10;49.30
30158;DHT22;21203;-33.912;151.178;2023-04-09T13:09:27;22.00;48.70
30158;DHT22;21203;-33.912;151.178;2023-04-09T13:11:57;21.90;48.90
30158;DHT22;21203;-33.912;151.178;2023-04-09T13:14:28;21.90;49.00
30158;DHT22;21203;-33.912;151.178;2023-04-09T13:16:59;21.90;49.00
30158;DHT22;21203;-33.912;151.178;2023-04-09T13:19:30;21.90;49.00
30158;DHT22;21203;-33.912;151.178;2023-04-09T13:22:00;21.80;49.20
30158;DHT22;21203;-33.912;151.178;2023-04-09T13:24:30;21.80;49.40
30158;DHT22;21203;-33.912;151.178;2023-04-09T13:27:01;21.70;49.40
30158;DHT22;21203;-33.912;151.178;2023-04-09T13:29:32;21.70;49.80
30158;DHT22;21203;-33.912;151.178;2023-04-09T13:32:02;21.70;49.40
30158;DHT22;21203;-33.912;151.178;2023-04-09T13:34:34;21.60;49.70
30158;DHT22;21203;-33.912;151.178;2023-04-09T13:37:04;21.60;49.60
30158;DHT22;21203;-33.912;151.178;2023-04-09T13:39:35;21.50;50.10
30158;DHT22;21203;-33.912;151.178;2023-04-09T13:42:05;21.50;50.00
30158;DHT22;21203;-33.912;151.178;2023-04-09T13:44:35;21.50;49.80
30158;DHT22;21203;-33.912;151.178;2023-04-09T13:47:07;21.50;49.80
30158;DHT22;21203;-33.912;151.178;2023-04-09T13:49:38;21.50;49.90
30158;DHT22;21203;-33.912;151.178;2023-04-09T13:52:09;21.50;49.90
30158;DHT22;21203;-33.912;151.178;2023-04-09T13:54:39;21.50;50.30
30158;DHT22;21203;-33.912;151.178;2023-04-09T13:57:09;21.50;50.20
30158;DHT22;21203;-33.912;151.178;2023-04-09T13:59:40;21.50;50.00
30158;DHT22;21203;-33.912;151.178;2023-04-09T14:02:11;21.40;49.80
30158;DHT22;21203;-33.912;151.178;2023-04-09T14:04:42;21.40;50.00
30158;DHT22;21203;-33.912;151.178;2023-04-09T14:07:12;21.30;50.20
30158;DHT22;21203;-33.912;151.178;2023-04-09T14:09:42;21.30;50.10
30158;DHT22;21203;-33.912;151.178;2023-04-09T14:12:13;21.30;50.20
30158;DHT22;21203;-33.912;151.178;2023-04-09T14:14:43;21.30;50.10
30158;DHT22;21203;-33.912;151.178;2023-04-09T14:17:13;21.20;50.00
30158;DHT22;21203;-33.912;151.178;2023-04-09T14:19:44;21.30;50.20
30158;DHT22;21203;-33.912;151.178;2023-04-09T14:22:16;21.30;50.20
30158;DHT22;21203;-33.912;151.178;2023-04-09T14:24:47;21.30;50.40
30158;DHT22;21203;-33.912;151.178;2023-04-09T14:27:17;21.30;50.20
30158;DHT22;21203;-33.912;151.178;2023-04-09T14:29:48;21.30;50.40
30158;DHT22;21203;-33.912;151.178;2023-04-09T14:32:20;21.20;50.70
30158;DHT22;21203;-33.912;151.178;2023-04-09T14:34:50;21.20;50.60
30158;DHT22;21203;-33.912;151.178;2023-04-09T14:37:21;21.20;50.50
30158;DHT22;21203;-33.912;151.178;2023-04-09T14:39:52;21.10;50.40
30158;DHT22;21203;-33.912;151.178;2023-04-09T14:42:22;21.00;50.60
30158;DHT22;21203;-33.912;151.178;2023-04-09T14:44:53;21.00;51.00
30158;DHT22;21203;-33.912;151.178;2023-04-09T14:47:23;21.00;51.10
30158;DHT22;21203;-33.912;151.178;2023-04-09T14:49:54;21.10;51.20
30158;DHT22;21203;-33.912;151.178;2023-04-09T14:52:24;21.10;51.00
30158;DHT22;21203;-33.912;151.178;2023-04-09T14:54:56;21.10;51.10
30158;DHT22;21203;-33.912;151.178;2023-04-09T14:57:26;21.10;50.60
30158;DHT22;21203;-33.912;151.178;2023-04-09T14:59:56;21.00;51.00
30158;DHT22;21203;-33.912;151.178;2023-04-09T15:02:26;21.00;51.10
30158;DHT22;21203;-33.912;151.178;2023-04-09T15:04:57;21.00;51.10
30158;DHT22;21203;-33.912;151.178;2023-04-09T15:07:28;21.00;51.30
30158;DHT22;21203;-33.912;151.178;2023-04-09T15:09:58;21.00;51.10
30158;DHT22;21203;-33.912;151.178;2023-04-09T15:12:31;21.00;51.60
30158;DHT22;21203;-33.912;151.178;2023-04-09T15:15:06;21.00;51.50
30158;DHT22;21203;-33.912;151.178;2023-04-09T15:17:36;21.00;51.30
30158;DHT22;21203;-33.912;151.178;2023-04-09T15:20:08;21.00;51.60
30158;DHT22;21203;-33.912;151.178;2023-04-09T15:22:39;21.00;51.60
30158;DHT22;21203;-33.912;151.178;2023-04-09T15:25:09;21.00;51.90
30158;DHT22;21203;-33.912;151.178;2023-04-09T15:27:40;21.00;51.50
30158;DHT22;21203;-33.912;151.178;2023-04-09T15:30:10;21.00;51.80
30158;DHT22;21203;-33.912;151.178;2023-04-09T15:32:41;21.00;51.60
30158;DHT22;21203;-33.912;151.178;2023-04-09T15:35:11;20.90;51.40
30158;DHT22;21203;-33.912;151.178;2023-04-09T15:37:43;20.90;52.00
30158;DHT22;21203;-33.912;151.178;2023-04-09T15:40:14;20.90;52.10
30158;DHT22;21203;-33.912;151.178;2023-04-09T15:42:44;20.90;52.10
30158;DHT22;21203;-33.912;151.178;2023-04-09T15:45:15;20.90;52.40